createdAt,value
2023-04-03T00:01:54.543Z,10.69
2023-04-03T00:04:21.123Z,10.51
2023-04-03T00:06:47.561Z,10.33
2023-04-03T00:09:13.956Z,10.26
2023-04-03T00:11:40.442Z,10.37
2023-04-03T00:14:06.838Z,10.33
2023-04-03T00:16:33.402Z,10.14
2023-04-03T00:18:59.835Z,10.06
2023-04-03T00:21:27.088Z,10.17
2023-04-03T00:23:53.536Z,10.26
2023-04-03T00:26:19.974Z,10.34
2023-04-03T00:28:46.410Z,10.35
2023-04-03T00:31:16.347Z,10.33
2023-04-03T00:33:43.068Z,10.31
2023-04-03T00:36:11.293Z,10.09
2023-04-03T00:38:38.091Z,9.98
2023-04-03T00:41:05.538Z,10.03
2023-04-03T00:43:31.966Z,9.95
2023-04-03T00:45:59.983Z,9.75
2023-04-03T00:48:35.867Z,9.75
2023-04-03T00:51:04.735Z,9.62
2023-04-03T00:53:40.022Z,9.53
2023-04-03T00:56:09.954Z,9.49
2023-04-03T00:58:44.097Z,9.48
2023-04-03T01:01:15.485Z,9.46
2023-04-03T01:03:41.806Z,9.37
2023-04-03T01:06:08.628Z,9.45
2023-04-03T01:08:36.462Z,9.58
2023-04-03T01:11:02.992Z,9.50
2023-04-03T01:13:33.265Z,9.36
2023-04-03T01:16:07.026Z,9.27
2023-04-03T01:18:36.708Z,9.15
2023-04-03T01:21:37.965Z,9.18
2023-04-03T01:24:19.620Z,9.34
2023-04-03T01:26:46.424Z,9.35
2023-04-03T01:29:12.902Z,9.31
2023-04-03T01:31:49.913Z,9.25
2023-04-03T01:34:16.573Z,9.31
2023-04-03T01:36:43.825Z,9.43
2023-04-03T01:39:10.409Z,9.40
2023-04-03T01:41:36.905Z,9.28
2023-04-03T01:44:04.745Z,9.15
2023-04-03T01:46:31.219Z,9.19
2023-04-03T01:48:57.603Z,9.08
2023-04-03T01:51:24.080Z,9.14
2023-04-03T01:53:50.677Z,9.17
2023-04-03T01:56:17.058Z,9.23
2023-04-03T01:58:43.458Z,9.20
2023-04-03T02:01:09.852Z,9.09
2023-04-03T02:03:36.589Z,9.15
2023-04-03T02:06:03.488Z,9.18
2023-04-03T02:08:29.908Z,9.15
2023-04-03T02:10:56.351Z,9.07
2023-04-03T02:13:22.748Z,8.97
2023-04-03T02:15:49.160Z,8.88
2023-04-03T02:18:15.800Z,8.89
2023-04-03T02:20:42.184Z,8.91
2023-04-03T02:23:08.650Z,8.83
2023-04-03T02:25:37.176Z,8.49
2023-04-03T02:28:05.068Z,8.40
2023-04-03T02:30:31.460Z,8.36
2023-04-03T02:32:57.950Z,8.34
2023-04-03T02:35:24.429Z,8.37
2023-04-03T02:37:50.883Z,8.09
2023-04-03T02:40:18.344Z,8.01
2023-04-03T02:42:44.843Z,7.95
2023-04-03T02:45:11.400Z,7.91
2023-04-03T02:47:37.852Z,7.91
2023-04-03T02:50:04.683Z,8.02
2023-04-03T02:52:31.102Z,7.97
2023-04-03T02:54:57.475Z,8.05
2023-04-03T02:57:23.890Z,8.15
2023-04-03T02:59:50.346Z,8.18
2023-04-03T03:02:16.758Z,8.16
2023-04-03T03:04:43.704Z,8.24
2023-04-03T03:07:10.398Z,8.15
2023-04-03T03:09:37.081Z,8.12
2023-04-03T03:12:04.653Z,8.24
2023-04-03T03:14:31.143Z,8.28
2023-04-03T03:16:57.612Z,8.34
2023-04-03T03:19:24.025Z,8.30
2023-04-03T03:21:51.118Z,8.12
2023-04-03T03:24:17.603Z,7.84
2023-04-03T03:26:44.174Z,7.63
2023-04-03T03:29:10.697Z,7.52
2023-04-03T03:31:37.126Z,7.52
2023-04-03T03:34:03.567Z,7.55
2023-04-03T03:36:29.940Z,7.67
2023-04-03T03:38:56.375Z,7.81
2023-04-03T03:41:22.791Z,7.93
2023-04-03T03:43:49.192Z,7.92
2023-04-03T03:46:15.685Z,7.89
2023-04-03T03:48:42.139Z,7.92
2023-04-03T03:51:08.541Z,7.75
2023-04-03T03:53:35.039Z,7.61
2023-04-03T03:56:01.849Z,7.48
2023-04-03T03:58:28.318Z,7.42
2023-04-03T04:00:54.765Z,7.41
2023-04-03T04:03:22.009Z,7.56
2023-04-03T04:05:48.582Z,7.59
2023-04-03T04:08:14.989Z,7.42
2023-04-03T04:10:41.373Z,7.29
2023-04-03T04:13:07.777Z,7.29
2023-04-03T04:15:35.000Z,7.47
2023-04-03T04:18:01.844Z,7.49
2023-04-03T04:20:28.330Z,7.60
2023-04-03T04:22:54.701Z,7.52
2023-04-03T04:25:21.195Z,7.48
2023-04-03T04:27:47.640Z,7.38
2023-04-03T04:30:14.475Z,7.38
2023-04-03T04:32:40.895Z,7.40
2023-04-03T04:35:07.805Z,7.31
2023-04-03T04:37:34.460Z,7.25
2023-04-03T04:40:01.122Z,7.24
2023-04-03T04:42:27.612Z,7.23
2023-04-03T04:44:54.127Z,7.30
2023-04-03T04:47:20.711Z,7.44
2023-04-03T04:49:48.418Z,7.55
2023-04-03T04:52:15.650Z,7.65
2023-04-03T04:54:42.114Z,7.62
2023-04-03T04:57:08.619Z,7.60
2023-04-03T04:59:35.149Z,7.48
2023-04-03T05:02:01.671Z,7.42
2023-04-03T05:04:28.281Z,7.63
2023-04-03T05:06:54.839Z,7.78
2023-04-03T05:09:21.849Z,7.68
2023-04-03T05:11:48.295Z,7.65
2023-04-03T05:14:14.784Z,7.52
2023-04-03T05:16:41.211Z,7.24
2023-04-03T05:19:07.623Z,7.31
2023-04-03T05:21:34.067Z,7.45
2023-04-03T05:24:03.533Z,7.47
2023-04-03T05:26:31.612Z,7.33
2023-04-03T05:28:58.650Z,7.06
2023-04-03T05:31:25.248Z,7.01
2023-04-03T05:33:51.775Z,7.22
2023-04-03T05:36:18.702Z,7.26
2023-04-03T05:38:45.404Z,7.39
2023-04-03T05:41:11.935Z,7.52
2023-04-03T05:43:39.905Z,7.69
2023-04-03T05:46:15.014Z,7.77
2023-04-03T05:48:41.747Z,7.83
2023-04-03T05:51:14.528Z,7.99
2023-04-03T05:53:42.010Z,7.97
2023-04-03T05:56:08.426Z,8.00
2023-04-03T05:58:34.816Z,8.06
2023-04-03T06:01:01.515Z,8.18
2023-04-03T06:03:28.069Z,8.30
2023-04-03T06:05:54.605Z,8.41
2023-04-03T06:08:21.527Z,8.46
2023-04-03T06:10:48.728Z,8.53
2023-04-03T06:13:15.171Z,8.56
2023-04-03T06:15:41.616Z,8.62
2023-04-03T06:18:08.238Z,8.68
2023-04-03T06:20:35.039Z,8.71
2023-04-03T06:23:01.555Z,8.77
2023-04-03T06:25:27.991Z,8.77
2023-04-03T06:27:56.496Z,8.81
2023-04-03T06:30:22.950Z,8.94
2023-04-03T06:32:49.564Z,8.99
2023-04-03T06:35:26.717Z,9.00
2023-04-03T06:37:57.783Z,9.16
2023-04-03T06:40:42.438Z,9.34
2023-04-03T06:43:09.497Z,9.57
2023-04-03T06:45:37.419Z,9.80
2023-04-03T06:48:04.283Z,9.95
2023-04-03T06:50:30.987Z,10.13
2023-04-03T06:52:57.728Z,10.36
2023-04-03T06:55:24.214Z,10.61
2023-04-03T06:57:50.990Z,10.64
2023-04-03T07:00:17.933Z,10.67
2023-04-03T07:02:44.532Z,10.87
2023-04-03T07:05:11.350Z,10.94
2023-04-03T07:07:38.779Z,11.02
2023-04-03T07:10:07.259Z,11.04
2023-04-03T07:12:33.798Z,11.15
2023-04-03T07:15:00.596Z,11.33
2023-04-03T07:17:27.899Z,11.52
2023-04-03T07:19:54.476Z,11.79
2023-04-03T07:22:21.129Z,11.79
2023-04-03T07:24:47.568Z,11.91
2023-04-03T07:27:14.215Z,12.06
2023-04-03T07:29:41.025Z,12.07
2023-04-03T07:32:08.014Z,12.25
2023-04-03T07:34:34.606Z,12.45
2023-04-03T07:37:02.071Z,12.72
2023-04-03T07:39:28.992Z,12.87
2023-04-03T07:41:58.475Z,12.69
2023-04-03T07:44:26.180Z,12.71
2023-04-03T07:46:52.719Z,12.90
2023-04-03T07:49:19.265Z,13.08
2023-04-03T07:51:46.385Z,13.14
2023-04-03T07:54:12.825Z,13.19
2023-04-03T07:56:39.245Z,13.38
2023-04-03T07:59:05.722Z,13.36
2023-04-03T08:01:39.206Z,13.53
2023-04-03T08:04:06.331Z,13.69
2023-04-03T08:06:45.932Z,13.62
2023-04-03T08:09:13.528Z,13.29
2023-04-03T08:11:40.800Z,13.35
2023-04-03T08:14:07.389Z,13.49
2023-04-03T08:16:34.060Z,13.60
2023-04-03T08:19:00.531Z,13.53
2023-04-03T08:21:27.810Z,13.63
2023-04-03T08:23:54.764Z,13.55
2023-04-03T08:26:24.555Z,13.55
2023-04-03T08:28:51.120Z,13.66
2023-04-03T08:31:20.842Z,14.04
2023-04-03T08:33:48.316Z,14.27
2023-04-03T08:36:24.216Z,14.19
2023-04-03T08:38:51.488Z,14.33
2023-04-03T08:41:34.635Z,14.54
2023-04-03T08:44:04.876Z,14.35
2023-04-03T08:47:09.787Z,14.36
2023-04-03T08:49:54.054Z,14.57
2023-04-03T08:52:49.636Z,14.34
2023-04-03T08:55:31.016Z,14.51
2023-04-03T08:58:05.303Z,14.58
2023-04-03T09:00:45.774Z,14.82
2023-04-03T09:03:18.850Z,14.97
2023-04-03T09:06:07.173Z,14.99
2023-04-03T09:09:10.675Z,14.92
2023-04-03T09:12:10.541Z,14.69
2023-04-03T09:14:58.769Z,14.97
2023-04-03T09:17:44.211Z,15.11
2023-04-03T09:20:34.108Z,15.22
2023-04-03T09:23:00.725Z,15.49
2023-04-03T09:25:33.720Z,15.61
2023-04-03T09:28:04.518Z,15.73
2023-04-03T09:30:31.394Z,15.62
2023-04-03T09:33:02.451Z,15.86
2023-04-03T09:35:44.783Z,15.88
2023-04-03T09:38:14.892Z,15.64
2023-04-03T09:40:50.572Z,15.86
2023-04-03T09:43:22.027Z,16.36
2023-04-03T09:45:50.207Z,16.65
2023-04-03T09:48:19.816Z,16.58
2023-04-03T09:50:56.262Z,16.58
2023-04-03T09:53:45.061Z,16.46
2023-04-03T09:56:17.355Z,16.07
2023-04-03T09:58:50.861Z,15.79
2023-04-03T10:01:25.971Z,15.99
2023-04-03T10:04:19.586Z,15.64
2023-04-03T10:06:47.771Z,15.80
2023-04-03T10:09:43.386Z,16.16
2023-04-03T10:12:14.123Z,16.04
2023-04-03T10:14:53.685Z,15.96
2023-04-03T10:17:49.422Z,16.54
2023-04-03T10:20:26.155Z,16.20
2023-04-03T10:23:04.848Z,16.63
2023-04-03T10:25:47.530Z,16.48
2023-04-03T10:28:44.425Z,16.25
2023-04-03T10:31:32.759Z,16.15
2023-04-03T10:34:18.054Z,16.75
2023-04-03T10:37:27.013Z,16.30
2023-04-03T10:40:06.090Z,15.90
2023-04-03T10:42:50.756Z,16.29
2023-04-03T10:45:28.993Z,16.68
2023-04-03T10:47:55.857Z,16.97
2023-04-03T10:50:44.019Z,16.90
2023-04-03T10:53:33.912Z,17.28
2023-04-03T10:56:28.134Z,17.61
2023-04-03T10:59:08.429Z,17.02
2023-04-03T11:01:39.665Z,16.57
2023-04-03T11:04:09.077Z,16.46
2023-04-03T11:06:50.398Z,16.53
2023-04-03T11:09:21.459Z,16.77
2023-04-03T11:11:50.160Z,17.51
2023-04-03T11:14:27.768Z,17.83
2023-04-03T11:17:26.306Z,17.50
2023-04-03T11:19:55.829Z,17.41
2023-04-03T11:22:38.597Z,17.43
2023-04-03T11:25:13.682Z,17.67
2023-04-03T11:27:43.140Z,17.63
2023-04-03T11:30:19.520Z,17.24
2023-04-03T11:32:51.933Z,17.16
2023-04-03T11:35:19.888Z,17.05
2023-04-03T11:37:51.244Z,17.27
2023-04-03T11:40:18.894Z,17.54
2023-04-03T11:42:52.351Z,17.61
2023-04-03T11:45:25.606Z,16.92
2023-04-03T11:47:55.939Z,16.75
2023-04-03T11:50:34.627Z,16.30
2023-04-03T11:53:07.332Z,16.23
2023-04-03T11:55:33.945Z,16.12
2023-04-03T11:58:00.596Z,15.90
2023-04-03T12:00:48.536Z,16.14
2023-04-03T12:03:24.002Z,16.14
2023-04-03T12:05:54.980Z,16.13
2023-04-03T12:08:33.344Z,16.59
2023-04-03T12:11:12.095Z,16.51
2023-04-03T12:14:04.602Z,16.25
2023-04-03T12:16:45.759Z,16.04
2023-04-03T12:19:14.989Z,16.01
2023-04-03T12:21:47.520Z,16.02
2023-04-03T12:24:16.894Z,16.35
2023-04-03T12:26:58.950Z,16.31
2023-04-03T12:29:30.163Z,16.14
2023-04-03T12:32:15.206Z,16.00
2023-04-03T12:35:00.584Z,15.93
2023-04-03T12:38:03.210Z,15.63
2023-04-03T12:40:44.091Z,15.74
2023-04-03T12:43:56.166Z,15.83
2023-04-03T12:46:24.827Z,15.88
2023-04-03T12:48:56.344Z,15.85
2023-04-03T12:51:34.890Z,15.83
2023-04-03T12:54:05.592Z,16.20
2023-04-03T12:56:33.801Z,16.47
2023-04-03T12:59:27.368Z,16.80
2023-04-03T13:02:01.599Z,16.55
2023-04-03T13:04:29.933Z,16.02
2023-04-03T13:06:56.883Z,16.10
2023-04-03T13:09:26.249Z,16.17
2023-04-03T13:12:14.372Z,16.43
2023-04-03T13:14:42.088Z,16.43
2023-04-03T13:17:15.773Z,16.69
2023-04-03T13:19:44.567Z,16.62
2023-04-03T13:22:23.204Z,16.63
2023-04-03T13:24:52.792Z,16.75
2023-04-03T13:27:19.940Z,16.88
2023-04-03T13:29:52.260Z,16.76
2023-04-03T13:32:23.970Z,16.70
2023-04-03T13:34:53.816Z,16.59
2023-04-03T13:37:23.326Z,16.70
2023-04-03T13:40:13.623Z,16.72
2023-04-03T13:42:42.890Z,16.48
2023-04-03T13:45:21.336Z,16.48
2023-04-03T13:47:52.607Z,16.37
2023-04-03T13:50:23.730Z,16.48
2023-04-03T13:52:53.109Z,16.56
2023-04-03T13:55:30.567Z,16.42
2023-04-03T13:58:01.283Z,16.38
2023-04-03T14:00:34.096Z,16.37
2023-04-03T14:03:00.812Z,16.51
2023-04-03T14:05:27.730Z,16.62
2023-04-03T14:07:56.281Z,16.59
2023-04-03T14:10:23.767Z,16.37
2023-04-03T14:12:52.197Z,16.60
2023-04-03T14:15:29.194Z,16.50
2023-04-03T14:17:56.572Z,16.41
2023-04-03T14:20:26.839Z,16.37
2023-04-03T14:22:54.740Z,16.58
2023-04-03T14:25:23.597Z,16.45
2023-04-03T14:27:52.326Z,16.39
2023-04-03T14:30:34.166Z,16.25
2023-04-03T14:33:02.021Z,16.09
2023-04-03T14:35:28.850Z,16.02
2023-04-03T14:37:56.292Z,16.03
2023-04-03T14:40:28.193Z,16.29
2023-04-03T14:42:56.416Z,16.25
2023-04-03T14:45:23.679Z,16.02
2023-04-03T14:47:53.999Z,15.89
2023-04-03T14:50:23.501Z,15.88
2023-04-03T14:52:52.302Z,16.18
2023-04-03T14:55:21.300Z,16.30
2023-04-03T14:57:48.197Z,16.13
2023-04-03T15:00:17.458Z,16.04
2023-04-03T15:02:44.248Z,15.84
2023-04-03T15:05:12.471Z,15.57
2023-04-03T15:07:51.306Z,15.54
2023-04-03T15:10:24.914Z,15.57
2023-04-03T15:12:52.597Z,15.45
2023-04-03T15:15:21.259Z,15.70
2023-04-03T15:17:51.733Z,15.80
2023-04-03T15:20:25.036Z,15.71
2023-04-03T15:22:52.126Z,15.66
2023-04-03T15:25:19.192Z,15.57
2023-04-03T15:27:45.895Z,15.56
2023-04-03T15:30:16.630Z,15.75
2023-04-03T15:32:43.276Z,15.64
2023-04-03T15:35:09.903Z,15.63
2023-04-03T15:37:36.576Z,15.66
2023-04-03T15:40:04.744Z,15.63
2023-04-03T15:42:31.215Z,15.81
2023-04-03T15:44:57.615Z,15.95
2023-04-03T15:47:26.069Z,15.78
2023-04-03T15:49:53.433Z,15.62
2023-04-03T15:52:20.192Z,15.53
2023-04-03T15:54:46.825Z,15.42
2023-04-03T15:57:13.296Z,15.15
2023-04-03T15:59:39.720Z,14.90
2023-04-03T16:02:09.159Z,14.80
2023-04-03T16:04:35.661Z,14.84
2023-04-03T16:07:03.574Z,14.76
2023-04-03T16:09:31.268Z,14.75
2023-04-03T16:11:57.729Z,14.71
2023-04-03T16:14:24.175Z,14.71
2023-04-03T16:16:50.904Z,14.58
2023-04-03T16:19:17.464Z,14.54
2023-04-03T16:21:43.931Z,14.42
2023-04-03T16:24:10.384Z,14.35
2023-04-03T16:26:36.835Z,14.31
2023-04-03T16:29:03.380Z,14.29
2023-04-03T16:31:30.026Z,14.29
2023-04-03T16:33:57.321Z,14.26
2023-04-03T16:36:29.184Z,14.33
2023-04-03T16:38:55.605Z,14.31
2023-04-03T16:41:22.013Z,14.30
2023-04-03T16:43:48.684Z,14.20
2023-04-03T16:46:15.350Z,14.09
2023-04-03T16:48:41.966Z,14.12
2023-04-03T16:51:08.457Z,14.08
2023-04-03T16:53:34.891Z,14.02
2023-04-03T16:56:01.287Z,13.91
2023-04-03T16:58:27.903Z,14.02
2023-04-03T17:00:54.753Z,13.96
2023-04-03T17:03:21.853Z,13.90
2023-04-03T17:05:49.040Z,13.84
2023-04-03T17:08:18.530Z,13.86
2023-04-03T17:10:45.030Z,13.90
2023-04-03T17:13:11.515Z,13.74
2023-04-03T17:15:38.340Z,13.69
2023-04-03T17:18:05.481Z,13.66
2023-04-03T17:20:34.711Z,13.76
2023-04-03T17:23:01.360Z,13.74
2023-04-03T17:25:27.925Z,13.69
2023-04-03T17:27:54.356Z,13.63
2023-04-03T17:30:20.746Z,13.64
2023-04-03T17:32:47.190Z,13.55
2023-04-03T17:35:13.716Z,13.49
2023-04-03T17:37:40.346Z,13.45
2023-04-03T17:40:07.714Z,13.41
2023-04-03T17:42:34.115Z,13.25
2023-04-03T17:45:01.329Z,13.22
2023-04-03T17:47:27.834Z,13.04
2023-04-03T17:49:54.471Z,13.04
2023-04-03T17:52:23.991Z,12.96
2023-04-03T17:54:50.482Z,12.92
2023-04-03T17:57:17.029Z,12.87
2023-04-03T17:59:43.429Z,12.74
2023-04-03T18:02:09.884Z,12.75
2023-04-03T18:04:36.398Z,12.70
2023-04-03T18:07:03.900Z,12.60
2023-04-03T18:09:33.289Z,12.56
2023-04-03T18:12:04.192Z,12.51
2023-04-03T18:14:32.556Z,12.51
2023-04-03T18:16:59.317Z,12.46
2023-04-03T18:19:29.054Z,12.43
2023-04-03T18:22:00.491Z,12.37
2023-04-03T18:24:27.389Z,12.28
2023-04-03T18:26:58.534Z,12.14
2023-04-03T18:29:25.905Z,12.18
2023-04-03T18:31:55.796Z,12.18
2023-04-03T18:34:22.710Z,12.12
2023-04-03T18:36:49.307Z,12.01
2023-04-03T18:39:15.966Z,11.98
2023-04-03T18:41:42.795Z,12.07
2023-04-03T18:44:15.616Z,12.08
2023-04-03T18:46:42.303Z,11.96
2023-04-03T18:49:10.415Z,11.83
2023-04-03T18:51:39.255Z,11.92
2023-04-03T18:54:06.529Z,11.83
2023-04-03T18:56:32.935Z,11.87
2023-04-03T18:58:59.342Z,11.89
2023-04-03T19:01:26.067Z,11.84
2023-04-03T19:03:52.599Z,11.69
2023-04-03T19:06:19.441Z,11.67
2023-04-03T19:08:46.285Z,11.63
2023-04-03T19:11:12.669Z,11.64
2023-04-03T19:13:46.916Z,11.59
2023-04-03T19:16:26.097Z,11.54
2023-04-03T19:18:52.596Z,11.48
2023-04-03T19:21:19.300Z,11.56
2023-04-03T19:23:45.845Z,11.52
2023-04-03T19:26:13.284Z,11.48
2023-04-03T19:28:41.483Z,11.43
2023-04-03T19:31:13.611Z,11.32
2023-04-03T19:33:41.627Z,11.06
2023-04-03T19:36:08.510Z,11.08
2023-04-03T19:38:35.610Z,11.00
2023-04-03T19:41:05.743Z,10.94
2023-04-03T19:43:32.313Z,10.99
2023-04-03T19:45:58.763Z,10.97
2023-04-03T19:48:25.511Z,11.02
2023-04-03T19:50:51.915Z,11.05
2023-04-03T19:53:22.110Z,11.01
2023-04-03T19:55:48.986Z,10.95
2023-04-03T19:58:15.451Z,11.05
2023-04-03T20:00:42.160Z,11.14
2023-04-03T20:03:08.825Z,11.21
2023-04-03T20:05:35.342Z,11.30
2023-04-03T20:08:02.203Z,11.22
2023-04-03T20:10:28.659Z,11.16
2023-04-03T20:12:55.242Z,11.12
2023-04-03T20:15:21.938Z,11.01
2023-04-03T20:17:49.514Z,10.89
2023-04-03T20:20:16.466Z,10.89
2023-04-03T20:22:42.934Z,10.99
2023-04-03T20:25:15.198Z,11.00
2023-04-03T20:27:44.142Z,10.86
2023-04-03T20:30:13.116Z,10.68
2023-04-03T20:32:39.677Z,10.89
2023-04-03T20:35:06.917Z,10.86
2023-04-03T20:37:33.926Z,10.85
2023-04-03T20:40:00.402Z,10.80
2023-04-03T20:42:27.452Z,10.87
2023-04-03T20:44:53.892Z,10.78
2023-04-03T20:47:20.406Z,10.78
2023-04-03T20:49:46.921Z,10.66
2023-04-03T20:52:13.422Z,10.53
2023-04-03T20:54:40.777Z,10.45
2023-04-03T20:57:07.245Z,10.48
2023-04-03T20:59:34.203Z,10.52
2023-04-03T21:02:00.866Z,10.66
2023-04-03T21:04:36.719Z,10.53
2023-04-03T21:07:41.415Z,10.59
2023-04-03T21:10:45.327Z,10.59
2023-04-03T21:13:49.331Z,10.56
2023-04-03T21:16:15.676Z,10.40
2023-04-03T21:18:49.576Z,10.39
2023-04-03T21:21:23.007Z,10.39
2023-04-03T21:23:50.622Z,10.33
2023-04-03T21:26:18.016Z,10.29
2023-04-03T21:28:44.704Z,10.35
2023-04-03T21:31:15.119Z,10.22
2023-04-03T21:33:42.486Z,10.28
2023-04-03T21:36:10.230Z,10.23
2023-04-03T21:38:36.763Z,10.21
2023-04-03T21:41:03.521Z,10.16
2023-04-03T21:43:30.225Z,10.11
2023-04-03T21:45:58.573Z,10.15
2023-04-03T21:48:26.469Z,10.06
2023-04-03T21:50:53.663Z,10.08
2023-04-03T21:53:22.526Z,10.05
2023-04-03T21:55:57.846Z,9.93
2023-04-03T21:58:31.977Z,9.89
2023-04-03T22:01:08.274Z,9.81
2023-04-03T22:03:34.961Z,9.93
2023-04-03T22:06:01.604Z,9.92
2023-04-03T22:08:28.969Z,10.01
2023-04-03T22:11:07.588Z,9.91
2023-04-03T22:13:34.492Z,9.77
2023-04-03T22:16:01.810Z,9.64
2023-04-03T22:18:29.327Z,9.74
2023-04-03T22:20:56.244Z,9.88
2023-04-03T22:23:22.778Z,9.82
2023-04-03T22:26:05.775Z,9.98
2023-04-03T22:28:34.455Z,9.86
2023-04-03T22:31:02.639Z,9.88
2023-04-03T22:33:29.560Z,9.94
2023-04-03T22:35:56.135Z,9.82
2023-04-03T22:38:23.036Z,9.80
2023-04-03T22:40:57.474Z,9.84
2023-04-03T22:43:24.069Z,9.93
2023-04-03T22:45:50.592Z,9.92
2023-04-03T22:48:17.514Z,9.87
2023-04-03T22:50:44.571Z,9.78
2023-04-03T22:53:11.145Z,9.78
2023-04-03T22:55:38.153Z,9.85
2023-04-03T22:58:04.994Z,9.92
2023-04-03T23:00:31.989Z,9.92
2023-04-03T23:02:59.109Z,9.89
2023-04-03T23:05:25.923Z,9.79
2023-04-03T23:07:52.540Z,9.69
2023-04-03T23:10:19.443Z,9.68
2023-04-03T23:12:45.869Z,9.82
2023-04-03T23:15:14.447Z,9.83
2023-04-03T23:17:40.958Z,9.77
2023-04-03T23:20:07.809Z,9.76
2023-04-03T23:22:34.241Z,9.63
2023-04-03T23:25:00.660Z,9.59
2023-04-03T23:27:27.093Z,9.58
2023-04-03T23:29:53.586Z,9.67
2023-04-03T23:32:20.226Z,9.65
2023-04-03T23:34:46.847Z,9.62
2023-04-03T23:37:13.237Z,9.45
2023-04-03T23:39:39.668Z,9.37
2023-04-03T23:42:09.124Z,9.47
2023-04-03T23:44:35.728Z,9.47
2023-04-03T23:47:02.274Z,9.39
2023-04-03T23:49:28.783Z,9.38
2023-04-03T23:51:56.858Z,9.28
2023-04-03T23:54:23.615Z,9.23
2023-04-03T23:56:50.014Z,9.34
2023-04-03T23:59:16.442Z,9.35
